Time;durP1;ratioP1;P1;durP2;ratioP2;P2;SDS_P1;SDS_P2;PMS_P1;PMS_P2;Temp;Humidity;BMP_temperature;BMP_pressure;BME280_temperature;BME280_humidity;BME280_pressure;Samples;Min_cycle;Max_cycle;Signal;HPM_P1;HPM_P2
2021/06/29 00:01:55;;;;;;;;;;;11.20;99.90;;;;;;5065258;28;19927;-68
2021/06/29 00:04:22;;;;;;;;;;;11.20;99.90;;;;;;5057833;28;19916;-70
2021/06/29 00:06:49;;;;;;;;;;;11.30;99.90;;;;;;5063079;28;20454;-68
2021/06/29 00:09:15;;;;;;;;;;;11.30;99.90;;;;;;5072641;28;19908;-70
2021/06/29 00:11:42;;;;;;;;;;;11.40;99.90;;;;;;5072430;28;19912;-70
2021/06/29 00:14:10;;;;;;;;;;;11.40;99.90;;;;;;5072211;28;20367;-72
2021/06/29 00:16:36;;;;;;;;;;;11.40;99.90;;;;;;5072644;28;19912;-71
2021/06/29 00:19:03;;;;;;;;;;;11.50;99.90;;;;;;5072739;28;19951;-71
2021/06/29 00:21:31;;;;;;;;;;;11.50;99.90;;;;;;5072153;28;19961;-71
2021/06/29 00:23:58;;;;;;;;;;;11.60;99.90;;;;;;5072311;28;19944;-70
2021/06/29 00:26:24;;;;;;;;;;;11.60;99.90;;;;;;5072549;28;19917;-73
2021/06/29 00:28:51;;;;;;;;;;;11.70;99.90;;;;;;5072373;28;19959;-72
2021/06/29 00:31:19;;;;;;;;;;;11.70;99.90;;;;;;5076125;28;19909;-72
2021/06/29 00:33:45;;;;;;;;;;;11.60;99.90;;;;;;5075778;28;19912;-72
2021/06/29 00:36:15;;;;;;;;;;;11.60;99.90;;;;;;5075633;28;19944;-71
2021/06/29 00:38:42;;;;;;;;;;;11.80;99.90;;;;;;5075716;28;20255;-69
2021/06/29 00:41:09;;;;;;;;;;;11.80;99.90;;;;;;5075602;28;19924;-71
2021/06/29 00:43:36;;;;;;;;;;;11.80;99.90;;;;;;5075495;28;19930;-70
2021/06/29 00:46:02;;;;;;;;;;;11.90;99.90;;;;;;5075650;28;19935;-69
2021/06/29 00:48:29;;;;;;;;;;;11.90;99.90;;;;;;5075475;28;19962;-71
2021/06/29 00:50:56;;;;;;;;;;;11.90;99.90;;;;;;5075338;28;19991;-70
2021/06/29 00:53:23;;;;;;;;;;;12.00;99.90;;;;;;5075570;28;19991;-70
2021/06/29 00:55:50;;;;;;;;;;;12.00;99.90;;;;;;5075303;28;19908;-71
2021/06/29 00:58:18;;;;;;;;;;;11.90;99.90;;;;;;5075498;28;19915;-69
2021/06/29 01:00:45;;;;;;;;;;;11.90;99.90;;;;;;5075249;28;20331;-70
2021/06/29 01:03:12;;;;;;;;;;;11.90;99.90;;;;;;5075191;28;19951;-70
2021/06/29 01:05:38;;;;;;;;;;;11.90;99.90;;;;;;5074927;28;19908;-71
2021/06/29 01:08:05;;;;;;;;;;;12.00;99.90;;;;;;5075299;28;19909;-69
2021/06/29 01:10:32;;;;;;;;;;;12.10;99.90;;;;;;5075031;28;20381;-70
2021/06/29 01:12:58;;;;;;;;;;;12.10;99.90;;;;;;5074866;28;20019;-68
2021/06/29 01:15:25;;;;;;;;;;;12.10;99.90;;;;;;5075168;28;19917;-71
2021/06/29 01:17:52;;;;;;;;;;;12.20;99.90;;;;;;5074899;28;19944;-71
2021/06/29 01:20:24;;;;;;;;;;;12.20;99.90;;;;;;5073557;28;20282;-70
2021/06/29 01:22:54;;;;;;;;;;;12.30;99.90;;;;;;5074914;28;19913;-69
2021/06/29 01:25:23;;;;;;;;;;;12.30;99.90;;;;;;5074806;28;19916;-71
2021/06/29 01:33:04;;;;;;;;;;;12.60;99.90;;;;;;5074761;28;19916;-71
2021/06/29 01:35:31;;;;;;;;;;;12.60;99.90;;;;;;5074280;28;20256;-68
2021/06/29 01:37:58;;;;;;;;;;;12.70;99.90;;;;;;5074709;28;19909;-69
2021/06/29 01:40:28;;;;;;;;;;;12.60;99.90;;;;;;5074510;28;19956;-69
2021/06/29 01:42:58;;;;;;;;;;;12.70;99.90;;;;;;5073951;28;19909;-69
2021/06/29 01:45:27;;;;;;;;;;;12.90;99.90;;;;;;5073179;28;19908;-69
2021/06/29 01:47:56;;;;;;;;;;;13.10;99.90;;;;;;5073971;28;19909;-69
2021/06/29 01:50:23;;;;;;;;;;;13.10;99.90;;;;;;5074218;28;20385;-69
2021/06/29 01:52:54;;;;;;;;;;;13.00;99.90;;;;;;5074258;28;19940;-69
2021/06/29 01:55:20;;;;;;;;;;;12.90;99.90;;;;;;5074230;28;19909;-70
2021/06/29 01:57:49;;;;;;;;;;;12.80;99.90;;;;;;5074149;28;20359;-69
2021/06/29 02:00:16;;;;;;;;;;;12.90;99.90;;;;;;5072776;28;20003;-69
2021/06/29 02:02:43;;;;;;;;;;;12.80;99.90;;;;;;5074163;28;19920;-68
2021/06/29 02:05:10;;;;;;;;;;;12.70;99.90;;;;;;5073840;28;19954;-69
2021/06/29 02:07:37;;;;;;;;;;;12.70;99.90;;;;;;5074452;28;19908;-69
2021/06/29 02:10:06;;;;;;;;;;;12.60;99.90;;;;;;5073871;28;19926;-70
2021/06/29 02:12:33;;;;;;;;;;;12.60;99.90;;;;;;5074189;28;19952;-68
2021/06/29 02:15:00;;;;;;;;;;;12.50;99.90;;;;;;5073712;28;19980;-69
2021/06/29 02:17:27;;;;;;;;;;;12.50;99.90;;;;;;5066417;28;19912;-68
2021/06/29 02:19:53;;;;;;;;;;;12.50;99.90;;;;;;5052692;28;19944;-68
2021/06/29 02:22:20;;;;;;;;;;;12.60;99.90;;;;;;5053025;28;19913;-68
2021/06/29 02:24:46;;;;;;;;;;;12.60;99.90;;;;;;5070474;28;20275;-69
2021/06/29 02:27:13;;;;;;;;;;;12.70;99.90;;;;;;5073555;28;19909;-69
2021/06/29 02:29:40;;;;;;;;;;;12.60;99.90;;;;;;5073531;28;19909;-69
2021/06/29 02:32:07;;;;;;;;;;;12.70;99.90;;;;;;5073480;28;19908;-69
2021/06/29 02:34:34;;;;;;;;;;;12.70;99.90;;;;;;5073410;28;19908;-69
2021/06/29 02:37:00;;;;;;;;;;;12.80;99.90;;;;;;5073500;28;19920;-69
2021/06/29 02:39:27;;;;;;;;;;;12.90;99.90;;;;;;5072403;28;20321;-71
2021/06/29 02:41:54;;;;;;;;;;;12.90;99.90;;;;;;5073155;28;19921;-70
2021/06/29 02:44:25;;;;;;;;;;;13.00;99.90;;;;;;5073425;28;19954;-69
2021/06/29 02:46:52;;;;;;;;;;;13.00;99.90;;;;;;5073300;28;20003;-69
2021/06/29 02:49:18;;;;;;;;;;;13.10;99.90;;;;;;5073120;28;19970;-71
2021/06/29 02:51:45;;;;;;;;;;;13.10;99.90;;;;;;5073167;28;19913;-72
2021/06/29 02:54:12;;;;;;;;;;;13.20;99.90;;;;;;5072220;28;19924;-69
2021/06/29 02:56:41;;;;;;;;;;;13.10;99.90;;;;;;5073115;28;19916;-71
2021/06/29 02:59:12;;;;;;;;;;;13.20;99.90;;;;;;5073287;28;19908;-69
2021/06/29 03:01:40;;;;;;;;;;;13.20;99.90;;;;;;5072868;28;19916;-69
2021/06/29 03:04:07;;;;;;;;;;;13.30;99.90;;;;;;5073010;28;19908;-70
2021/06/29 03:06:33;;;;;;;;;;;13.30;99.90;;;;;;5073034;28;19909;-71
2021/06/29 03:09:00;;;;;;;;;;;13.30;99.90;;;;;;5073118;28;19909;-71
2021/06/29 03:11:28;;;;;;;;;;;13.30;99.90;;;;;;5073047;28;19908;-70
2021/06/29 03:13:54;;;;;;;;;;;13.30;99.90;;;;;;5072717;28;19928;-70
2021/06/29 03:16:21;;;;;;;;;;;13.30;99.90;;;;;;5073082;28;19909;-70
2021/06/29 03:18:48;;;;;;;;;;;13.20;99.90;;;;;;5073101;28;19962;-69
2021/06/29 03:21:14;;;;;;;;;;;13.30;99.90;;;;;;5072755;28;19916;-69
2021/06/29 03:23:41;;;;;;;;;;;13.30;99.90;;;;;;5072694;28;19987;-69
2021/06/29 03:26:08;;;;;;;;;;;13.30;99.90;;;;;;5072914;28;20266;-70
2021/06/29 03:28:35;;;;;;;;;;;13.30;99.90;;;;;;5072933;28;19966;-69
2021/06/29 03:31:01;;;;;;;;;;;13.30;99.90;;;;;;5072825;28;19913;-71
2021/06/29 03:33:28;;;;;;;;;;;13.40;99.90;;;;;;5072839;28;19909;-69
2021/06/29 03:35:55;;;;;;;;;;;13.40;99.90;;;;;;5072791;28;19957;-70
2021/06/29 03:38:22;;;;;;;;;;;13.50;99.90;;;;;;5072743;28;19912;-70
2021/06/29 03:40:48;;;;;;;;;;;13.50;99.90;;;;;;5072651;28;19917;-71
2021/06/29 03:43:15;;;;;;;;;;;13.60;99.90;;;;;;5072826;28;19915;-72
2021/06/29 03:45:41;;;;;;;;;;;13.60;99.90;;;;;;5072327;28;19912;-69
2021/06/29 03:48:08;;;;;;;;;;;13.60;99.90;;;;;;5072545;28;20339;-70
2021/06/29 03:50:35;;;;;;;;;;;13.70;99.90;;;;;;5072624;28;19912;-71
2021/06/29 03:53:02;;;;;;;;;;;13.70;99.90;;;;;;5072765;28;19912;-72
2021/06/29 03:55:29;;;;;;;;;;;13.80;99.90;;;;;;5072612;28;19909;-69
2021/06/29 03:57:56;;;;;;;;;;;13.80;99.90;;;;;;5072462;28;19909;-71
2021/06/29 04:00:23;;;;;;;;;;;13.80;99.90;;;;;;5072609;28;19916;-70
2021/06/29 04:02:50;;;;;;;;;;;13.80;99.90;;;;;;5072393;28;19915;-72
2021/06/29 04:05:17;;;;;;;;;;;13.80;99.90;;;;;;5074372;28;19958;-69
2021/06/29 04:07:47;;;;;;;;;;;13.80;99.90;;;;;;5076083;28;19912;-72
2021/06/29 04:10:14;;;;;;;;;;;13.70;99.90;;;;;;5076198;28;19909;-69
2021/06/29 04:12:41;;;;;;;;;;;13.70;99.90;;;;;;5076177;28;19908;-71
2021/06/29 04:15:08;;;;;;;;;;;13.70;99.90;;;;;;5075991;28;19952;-70
2021/06/29 04:17:35;;;;;;;;;;;13.70;99.90;;;;;;5075796;28;19920;-69
2021/06/29 04:20:03;;;;;;;;;;;13.80;99.90;;;;;;5075923;28;19913;-69
2021/06/29 04:22:29;;;;;;;;;;;13.70;99.90;;;;;;5076098;28;19912;-71
2021/06/29 04:24:57;;;;;;;;;;;13.70;99.90;;;;;;5075993;28;19909;-72
2021/06/29 04:27:24;;;;;;;;;;;13.70;99.90;;;;;;5075962;28;20567;-69
2021/06/29 04:29:52;;;;;;;;;;;13.70;99.90;;;;;;5075952;28;20094;-72
2021/06/29 04:32:19;;;;;;;;;;;13.70;99.90;;;;;;5075915;28;19956;-68
2021/06/29 04:34:46;;;;;;;;;;;13.70;99.90;;;;;;5075763;28;20317;-69
2021/06/29 04:37:12;;;;;;;;;;;13.80;99.90;;;;;;5075700;28;20009;-70
2021/06/29 04:39:39;;;;;;;;;;;13.70;99.90;;;;;;5074933;28;19908;-69
2021/06/29 04:42:06;;;;;;;;;;;13.70;99.90;;;;;;5075837;28;19916;-69
2021/06/29 04:44:35;;;;;;;;;;;13.70;99.90;;;;;;5075774;28;19965;-69
2021/06/29 04:47:02;;;;;;;;;;;13.70;99.90;;;;;;5075563;28;19913;-71
2021/06/29 04:49:29;;;;;;;;;;;13.70;99.90;;;;;;5075506;28;19915;-69
2021/06/29 04:51:56;;;;;;;;;;;13.70;99.90;;;;;;5075537;28;20367;-70
2021/06/29 04:54:22;;;;;;;;;;;13.70;99.90;;;;;;5075498;28;20259;-72
2021/06/29 04:56:49;;;;;;;;;;;13.70;99.90;;;;;;5075452;28;19909;-71
2021/06/29 04:59:16;;;;;;;;;;;13.60;99.90;;;;;;5075502;28;19912;-70
2021/06/29 05:01:43;;;;;;;;;;;13.70;99.90;;;;;;5074929;28;19916;-71
2021/06/29 05:04:10;;;;;;;;;;;13.70;99.90;;;;;;5075101;28;19908;-72
2021/06/29 05:06:36;;;;;;;;;;;13.70;99.90;;;;;;5075398;28;19980;-71
2021/06/29 05:09:03;;;;;;;;;;;13.70;99.90;;;;;;5075225;28;19909;-71
2021/06/29 05:11:30;;;;;;;;;;;13.70;99.90;;;;;;5075146;28;19933;-71
2021/06/29 05:13:57;;;;;;;;;;;13.70;99.90;;;;;;5074917;28;19921;-72
2021/06/29 05:16:23;;;;;;;;;;;13.70;99.90;;;;;;5073907;28;20022;-71
2021/06/29 05:18:50;;;;;;;;;;;13.70;99.90;;;;;;5074928;28;19909;-72
2021/06/29 05:21:17;;;;;;;;;;;13.60;99.90;;;;;;5074788;28;19916;-71
2021/06/29 05:23:43;;;;;;;;;;;13.60;99.90;;;;;;5074620;28;19912;-71
2021/06/29 05:26:10;;;;;;;;;;;13.60;99.90;;;;;;5074951;28;19908;-71
2021/06/29 05:28:36;;;;;;;;;;;13.60;99.90;;;;;;5074972;28;19954;-70
2021/06/29 05:31:03;;;;;;;;;;;13.70;99.90;;;;;;5074752;28;19913;-73
2021/06/29 05:33:30;;;;;;;;;;;13.70;99.90;;;;;;5074521;28;19915;-69
2021/06/29 05:35:56;;;;;;;;;;;13.80;99.90;;;;;;5074732;28;19908;-70
2021/06/29 05:38:23;;;;;;;;;;;13.80;99.90;;;;;;5074571;28;19991;-69
2021/06/29 05:40:50;;;;;;;;;;;13.90;99.90;;;;;;5074650;28;19951;-69
2021/06/29 05:43:16;;;;;;;;;;;13.90;99.90;;;;;;5074582;28;20319;-71
2021/06/29 05:45:43;;;;;;;;;;;14.00;99.90;;;;;;5074424;28;19915;-69
2021/06/29 05:48:14;;;;;;;;;;;14.00;99.90;;;;;;5074218;28;19908;-68
2021/06/29 05:50:40;;;;;;;;;;;13.90;99.90;;;;;;5074447;28;20374;-71
2021/06/29 05:53:07;;;;;;;;;;;13.90;99.90;;;;;;5074271;28;20431;-69
2021/06/29 05:55:34;;;;;;;;;;;13.80;99.90;;;;;;5074141;28;19948;-71
2021/06/29 05:58:00;;;;;;;;;;;13.90;99.90;;;;;;5074374;28;19908;-69
2021/06/29 06:00:27;;;;;;;;;;;13.90;99.90;;;;;;5074061;28;20304;-72
2021/06/29 06:02:54;;;;;;;;;;;13.80;99.90;;;;;;5074502;28;19908;-70
2021/06/29 06:05:20;;;;;;;;;;;13.80;99.90;;;;;;5074111;28;19909;-72
2021/06/29 06:07:47;;;;;;;;;;;13.70;99.90;;;;;;5074182;28;19931;-71
2021/06/29 06:10:14;;;;;;;;;;;13.70;99.90;;;;;;5074036;28;19931;-69
2021/06/29 06:12:40;;;;;;;;;;;13.80;99.90;;;;;;5073870;28;19951;-71
2021/06/29 06:15:07;;;;;;;;;;;13.80;99.90;;;;;;5073889;28;20335;-72
2021/06/29 06:17:37;;;;;;;;;;;13.80;99.90;;;;;;5073790;28;19916;-70
2021/06/29 06:20:05;;;;;;;;;;;13.90;99.90;;;;;;5073558;28;19915;-71
2021/06/29 06:22:32;;;;;;;;;;;13.90;99.90;;;;;;5073761;28;19959;-72
2021/06/29 06:24:59;;;;;;;;;;;13.90;99.90;;;;;;5073827;28;19916;-69
2021/06/29 06:27:26;;;;;;;;;;;13.80;99.90;;;;;;5073562;28;19916;-70
2021/06/29 06:29:53;;;;;;;;;;;13.80;99.90;;;;;;5073508;28;19958;-72
2021/06/29 06:32:19;;;;;;;;;;;13.90;99.90;;;;;;5074152;28;20294;-69
2021/06/29 06:34:46;;;;;;;;;;;13.90;99.90;;;;;;5072124;28;19908;-71
2021/06/29 06:37:12;;;;;;;;;;;13.90;99.90;;;;;;5073594;28;19915;-72
2021/06/29 06:39:39;;;;;;;;;;;13.80;99.90;;;;;;5073430;28;19995;-71
2021/06/29 06:42:06;;;;;;;;;;;13.90;99.90;;;;;;5073593;28;19916;-71
2021/06/29 06:44:33;;;;;;;;;;;13.80;99.90;;;;;;5073731;28;19995;-73
2021/06/29 06:46:59;;;;;;;;;;;13.80;99.90;;;;;;5074267;28;19918;-72
2021/06/29 06:49:26;;;;;;;;;;;13.80;99.90;;;;;;5073344;28;20412;-73
2021/06/29 06:51:53;;;;;;;;;;;13.70;99.90;;;;;;5073148;28;19947;-72
2021/06/29 06:54:19;;;;;;;;;;;13.70;99.90;;;;;;5073283;28;19908;-71
2021/06/29 06:56:46;;;;;;;;;;;13.80;99.90;;;;;;5073233;28;19959;-72
2021/06/29 06:59:13;;;;;;;;;;;13.80;99.90;;;;;;5073128;28;20275;-72
2021/06/29 07:01:41;;;;;;;;;;;13.80;99.90;;;;;;5072842;28;20363;-72
2021/06/29 07:04:07;;;;;;;;;;;13.80;99.90;;;;;;5073017;28;20373;-72
2021/06/29 07:06:34;;;;;;;;;;;13.80;99.90;;;;;;5073132;28;19909;-71
2021/06/29 07:09:01;;;;;;;;;;;13.80;99.90;;;;;;5072934;28;19931;-72
2021/06/29 07:11:27;;;;;;;;;;;13.70;99.90;;;;;;5072946;28;19916;-71
2021/06/29 07:13:54;;;;;;;;;;;13.70;99.90;;;;;;5072307;28;19923;-71
2021/06/29 07:16:22;;;;;;;;;;;13.60;99.90;;;;;;5073114;28;19931;-72
2021/06/29 07:18:49;;;;;;;;;;;13.60;99.90;;;;;;5072830;28;19908;-72
2021/06/29 07:21:16;;;;;;;;;;;13.60;99.90;;;;;;5072974;28;20371;-72
2021/06/29 07:23:42;;;;;;;;;;;13.70;99.90;;;;;;5072796;28;20011;-69
2021/06/29 07:26:09;;;;;;;;;;;13.70;99.90;;;;;;5073002;28;19908;-70
2021/06/29 07:28:36;;;;;;;;;;;13.70;99.90;;;;;;5072821;28;19914;-71
2021/06/29 07:31:03;;;;;;;;;;;13.60;99.90;;;;;;5072744;28;19995;-71
2021/06/29 07:33:29;;;;;;;;;;;13.60;99.90;;;;;;5072750;28;20407;-70
2021/06/29 07:35:56;;;;;;;;;;;13.60;99.90;;;;;;5072917;28;19943;-71
2021/06/29 07:38:23;;;;;;;;;;;13.60;99.90;;;;;;5072645;28;20414;-71
2021/06/29 07:40:49;;;;;;;;;;;13.60;99.90;;;;;;5073861;28;20385;-68
2021/06/29 07:43:16;;;;;;;;;;;13.60;99.90;;;;;;5074609;28;20024;-68
2021/06/29 07:45:43;;;;;;;;;;;13.60;99.90;;;;;;5074560;28;19918;-71
2021/06/29 07:48:10;;;;;;;;;;;13.60;99.90;;;;;;5074831;28;19936;-70
2021/06/29 07:50:36;;;;;;;;;;;13.50;99.90;;;;;;5074748;28;19908;-71
2021/06/29 07:53:03;;;;;;;;;;;13.60;99.90;;;;;;5074404;28;20373;-70
2021/06/29 07:55:30;;;;;;;;;;;13.60;99.90;;;;;;5074186;28;19908;-69
2021/06/29 07:57:58;;;;;;;;;;;13.60;99.90;;;;;;5074474;28;19909;-70
2021/06/29 08:00:25;;;;;;;;;;;13.60;99.90;;;;;;5074290;28;20322;-70
2021/06/29 08:02:52;;;;;;;;;;;13.60;99.90;;;;;;5074215;28;19962;-69
2021/06/29 08:05:18;;;;;;;;;;;13.50;99.90;;;;;;5074236;28;19919;-68
2021/06/29 08:07:45;;;;;;;;;;;13.50;99.90;;;;;;5072222;28;20362;-68
2021/06/29 08:10:12;;;;;;;;;;;13.50;99.90;;;;;;5074145;28;20430;-69
2021/06/29 08:12:38;;;;;;;;;;;13.50;99.90;;;;;;5074103;28;19989;-68
2021/06/29 08:15:06;;;;;;;;;;;13.50;99.90;;;;;;5073749;28;20066;-69
2021/06/29 08:17:32;;;;;;;;;;;13.50;99.90;;;;;;5073835;28;20271;-68
2021/06/29 08:19:59;;;;;;;;;;;13.40;99.90;;;;;;5072259;28;20283;-71
2021/06/29 08:22:26;;;;;;;;;;;13.40;99.90;;;;;;5072596;28;19916;-71
2021/06/29 08:24:53;;;;;;;;;;;13.40;99.90;;;;;;5073973;28;19966;-69
2021/06/29 08:27:19;;;;;;;;;;;13.30;99.90;;;;;;5074047;28;19998;-71
2021/06/29 08:29:47;;;;;;;;;;;13.40;99.90;;;;;;5073615;28;19908;-70
2021/06/29 08:32:17;;;;;;;;;;;13.40;99.90;;;;;;5073404;28;19966;-70
2021/06/29 08:34:43;;;;;;;;;;;13.40;99.90;;;;;;5074319;28;19912;-71
2021/06/29 08:37:10;;;;;;;;;;;13.40;99.90;;;;;;5073719;28;20321;-70
2021/06/29 08:39:37;;;;;;;;;;;13.40;99.90;;;;;;5073546;28;19913;-70
2021/06/29 08:42:04;;;;;;;;;;;13.30;99.90;;;;;;5073779;28;20320;-70
2021/06/29 08:44:31;;;;;;;;;;;13.30;99.90;;;;;;5073939;28;19923;-73
2021/06/29 08:46:57;;;;;;;;;;;13.30;99.90;;;;;;5073567;28;20484;-70
2021/06/29 08:49:24;;;;;;;;;;;13.30;99.90;;;;;;5073632;28;19908;-70
2021/06/29 08:51:51;;;;;;;;;;;13.30;99.90;;;;;;5073706;28;19908;-71
2021/06/29 08:54:19;;;;;;;;;;;13.30;99.90;;;;;;5073988;28;19916;-70
2021/06/29 08:56:46;;;;;;;;;;;13.30;99.90;;;;;;5073798;28;20248;-70
2021/06/29 08:59:13;;;;;;;;;;;13.30;99.90;;;;;;5073242;28;19936;-69
2021/06/29 09:01:40;;;;;;;;;;;13.30;99.90;;;;;;5073263;28;19917;-69
2021/06/29 09:04:06;;;;;;;;;;;13.30;99.90;;;;;;5073450;28;20056;-71
2021/06/29 09:06:37;;;;;;;;;;;13.30;99.90;;;;;;5074801;28;20275;-68
2021/06/29 09:09:22;;;;;;;;;;;13.40;99.90;;;;;;5072591;28;19916;-68
2021/06/29 09:11:49;;;;;;;;;;;13.40;99.90;;;;;;5054760;28;20270;-71
2021/06/29 09:14:16;;;;;;;;;;;13.40;99.90;;;;;;5054668;28;19924;-70
2021/06/29 09:16:44;;;;;;;;;;;13.50;99.90;;;;;;5054577;28;19919;-71
2021/06/29 09:19:11;;;;;;;;;;;13.50;99.90;;;;;;5055080;28;19915;-68
2021/06/29 09:21:38;;;;;;;;;;;13.40;99.90;;;;;;5054618;28;20346;-69
2021/06/29 09:24:05;;;;;;;;;;;13.30;99.90;;;;;;5054989;28;19908;-69
2021/06/29 09:26:37;;;;;;;;;;;13.40;99.90;;;;;;5054805;28;19959;-69
2021/06/29 09:29:07;;;;;;;;;;;13.40;99.90;;;;;;5054916;28;20275;-70
2021/06/29 09:31:35;;;;;;;;;;;13.40;99.90;;;;;;5053986;28;19909;-69
2021/06/29 09:34:07;;;;;;;;;;;13.40;99.90;;;;;;5053246;28;19935;-69
2021/06/29 09:36:35;;;;;;;;;;;13.40;99.90;;;;;;5054711;28;19909;-68
2021/06/29 09:39:06;;;;;;;;;;;13.40;99.90;;;;;;5054575;28;19991;-69
2021/06/29 09:41:35;;;;;;;;;;;13.40;99.90;;;;;;5054069;28;19917;-72
2021/06/29 09:44:09;;;;;;;;;;;13.40;99.90;;;;;;5054365;28;19912;-69
2021/06/29 09:46:39;;;;;;;;;;;13.40;99.90;;;;;;5054074;28;19909;-69
2021/06/29 09:49:13;;;;;;;;;;;13.40;99.90;;;;;;5054429;28;19917;-67
2021/06/29 09:51:40;;;;;;;;;;;13.40;99.90;;;;;;5054298;28;19909;-67
2021/06/29 09:54:08;;;;;;;;;;;13.40;99.90;;;;;;5054506;28;19961;-68
2021/06/29 09:56:40;;;;;;;;;;;13.40;99.90;;;;;;5054453;28;19909;-69
2021/06/29 09:59:15;;;;;;;;;;;13.40;99.90;;;;;;5054115;28;20359;-71
2021/06/29 10:01:41;;;;;;;;;;;13.40;99.90;;;;;;5053874;28;19916;-72
2021/06/29 10:04:08;;;;;;;;;;;13.30;99.90;;;;;;5054128;28;19962;-70
2021/06/29 10:06:36;;;;;;;;;;;13.30;99.90;;;;;;5054699;28;20315;-72
2021/06/29 10:09:12;;;;;;;;;;;13.30;99.90;;;;;;5054097;28;20382;-73
2021/06/29 10:11:42;;;;;;;;;;;13.30;99.90;;;;;;5054078;28;19909;-70
2021/06/29 10:14:19;;;;;;;;;;;13.30;99.90;;;;;;5054089;28;19920;-70
2021/06/29 10:16:49;;;;;;;;;;;13.30;99.90;;;;;;5053982;28;19912;-72
2021/06/29 10:19:25;;;;;;;;;;;13.30;99.90;;;;;;5053880;28;19909;-71
2021/06/29 10:21:53;;;;;;;;;;;13.20;99.90;;;;;;5052520;28;20287;-72
2021/06/29 10:24:21;;;;;;;;;;;13.30;99.90;;;;;;5054046;28;19931;-73
2021/06/29 10:26:49;;;;;;;;;;;13.30;99.90;;;;;;5053697;28;19909;-70
2021/06/29 10:29:17;;;;;;;;;;;13.30;99.90;;;;;;5053714;28;19916;-73
2021/06/29 10:31:46;;;;;;;;;;;13.30;99.90;;;;;;5053304;28;19951;-72
2021/06/29 10:34:13;;;;;;;;;;;13.20;99.90;;;;;;5053792;28;19909;-70
2021/06/29 10:36:42;;;;;;;;;;;13.20;99.90;;;;;;5053752;28;19909;-68
2021/06/29 10:39:11;;;;;;;;;;;13.10;99.90;;;;;;5053752;28;19916;-68
2021/06/29 10:41:45;;;;;;;;;;;13.10;99.90;;;;;;5053409;28;19924;-70
2021/06/29 10:44:17;;;;;;;;;;;13.20;99.90;;;;;;5053480;28;19916;-68
2021/06/29 10:46:45;;;;;;;;;;;13.20;99.90;;;;;;5054271;28;20310;-70
2021/06/29 10:49:29;;;;;;;;;;;13.30;99.90;;;;;;5072755;28;19909;-69
2021/06/29 10:51:58;;;;;;;;;;;13.30;99.90;;;;;;5073381;28;19908;-68
2021/06/29 10:54:38;;;;;;;;;;;13.30;99.90;;;;;;5073297;28;20013;-69
2021/06/29 10:57:10;;;;;;;;;;;13.30;99.90;;;;;;5073135;28;19919;-70
2021/06/29 10:59:41;;;;;;;;;;;13.30;99.90;;;;;;5073012;28;19912;-70
2021/06/29 11:02:10;;;;;;;;;;;13.30;99.90;;;;;;5073072;28;20019;-69
2021/06/29 11:04:54;;;;;;;;;;;13.30;99.90;;;;;;5072570;28;19930;-68
2021/06/29 11:07:26;;;;;;;;;;;13.20;99.90;;;;;;5073100;28;19909;-69
2021/06/29 11:09:59;;;;;;;;;;;13.20;99.90;;;;;;5072841;28;20355;-68
2021/06/29 11:12:27;;;;;;;;;;;13.10;99.90;;;;;;5071202;28;20586;-67
2021/06/29 11:14:55;;;;;;;;;;;13.10;99.90;;;;;;5069971;28;19990;-68
2021/06/29 11:17:22;;;;;;;;;;;13.00;99.90;;;;;;5070807;28;19978;-68
2021/06/29 11:19:58;;;;;;;;;;;13.00;99.90;;;;;;5070105;28;19908;-70
2021/06/29 11:22:43;;;;;;;;;;;13.10;99.90;;;;;;5070894;28;19939;-68
2021/06/29 11:25:10;;;;;;;;;;;13.00;99.90;;;;;;5070458;28;19944;-67
2021/06/29 11:27:54;;;;;;;;;;;13.10;99.90;;;;;;5070754;28;19908;-68
2021/06/29 11:30:39;;;;;;;;;;;13.10;99.90;;;;;;5070859;28;20383;-71
2021/06/29 11:33:23;;;;;;;;;;;13.10;99.90;;;;;;5070811;28;19999;-70
2021/06/29 11:35:50;;;;;;;;;;;13.10;99.90;;;;;;5070624;28;19984;-68
2021/06/29 11:38:17;;;;;;;;;;;13.00;99.90;;;;;;5070339;28;19909;-70
2021/06/29 11:40:44;;;;;;;;;;;13.00;99.90;;;;;;5070676;28;19920;-71
2021/06/29 11:43:14;;;;;;;;;;;13.10;99.90;;;;;;5070684;28;19922;-68
2021/06/29 11:45:41;;;;;;;;;;;13.10;99.90;;;;;;5070780;28;19915;-70
2021/06/29 11:48:28;;;;;;;;;;;13.20;99.90;;;;;;5070427;28;19953;-71
2021/06/29 11:50:54;;;;;;;;;;;13.30;99.90;;;;;;5056104;28;19912;-69
2021/06/29 11:53:22;;;;;;;;;;;13.20;99.90;;;;;;5070644;28;19912;-70
2021/06/29 11:55:48;;;;;;;;;;;13.30;99.90;;;;;;5070290;28;19913;-69
2021/06/29 11:58:15;;;;;;;;;;;13.30;99.90;;;;;;5070744;28;19919;-71
2021/06/29 12:00:42;;;;;;;;;;;13.30;99.90;;;;;;5070580;28;20480;-70
2021/06/29 12:03:16;;;;;;;;;;;13.30;99.90;;;;;;5070020;28;19994;-71
2021/06/29 12:05:43;;;;;;;;;;;13.30;99.90;;;;;;5069826;28;20057;-69
2021/06/29 12:08:11;;;;;;;;;;;13.20;99.90;;;;;;5070753;28;19920;-71
2021/06/29 12:10:42;;;;;;;;;;;13.20;99.90;;;;;;5070400;28;19999;-70
2021/06/29 12:13:08;;;;;;;;;;;13.20;99.90;;;;;;5068981;28;19912;-72
2021/06/29 12:15:42;;;;;;;;;;;13.20;99.90;;;;;;5070300;28;20286;-71
2021/06/29 12:18:10;;;;;;;;;;;13.10;99.90;;;;;;5069501;28;19980;-69
2021/06/29 12:20:38;;;;;;;;;;;13.10;99.90;;;;;;5070426;28;19917;-68
2021/06/29 12:23:06;;;;;;;;;;;13.10;99.90;;;;;;5070433;28;19995;-68
2021/06/29 12:25:33;;;;;;;;;;;13.10;99.90;;;;;;5071008;28;20326;-68
2021/06/29 12:28:00;;;;;;;;;;;13.10;99.90;;;;;;5070984;28;19924;-70
2021/06/29 12:30:39;;;;;;;;;;;13.00;99.90;;;;;;5053417;28;20002;-68
2021/06/29 12:33:12;;;;;;;;;;;13.00;99.90;;;;;;5053884;28;19916;-71
2021/06/29 12:35:39;;;;;;;;;;;13.00;99.90;;;;;;5053680;28;19998;-71
2021/06/29 12:38:07;;;;;;;;;;;13.00;99.90;;;;;;5053382;28;19909;-71
2021/06/29 12:40:35;;;;;;;;;;;13.00;99.90;;;;;;5054043;28;19916;-70
2021/06/29 12:43:22;;;;;;;;;;;13.00;99.90;;;;;;5054028;28;19913;-70
2021/06/29 12:45:49;;;;;;;;;;;13.00;99.90;;;;;;5054153;28;19935;-71
2021/06/29 12:48:17;;;;;;;;;;;13.00;99.90;;;;;;5055500;28;19909;-70
2021/06/29 12:50:54;;;;;;;;;;;13.00;99.90;;;;;;5054315;28;19955;-71
2021/06/29 12:53:22;;;;;;;;;;;13.00;99.90;;;;;;5053853;28;19963;-68
2021/06/29 12:55:48;;;;;;;;;;;13.00;99.90;;;;;;5053383;28;19908;-69
2021/06/29 12:58:16;;;;;;;;;;;13.00;99.90;;;;;;5053584;28;19909;-68
2021/06/29 13:00:46;;;;;;;;;;;13.00;99.90;;;;;;5053311;28;19912;-69
2021/06/29 13:03:17;;;;;;;;;;;13.00;99.90;;;;;;5053344;28;19917;-70
2021/06/29 13:05:44;;;;;;;;;;;13.00;99.90;;;;;;5053204;28;20427;-69
2021/06/29 13:08:12;;;;;;;;;;;12.90;99.90;;;;;;5053220;28;19948;-72
2021/06/29 13:10:39;;;;;;;;;;;13.00;99.90;;;;;;5052730;28;19918;-69
2021/06/29 13:13:14;;;;;;;;;;;12.90;99.90;;;;;;5052830;28;19931;-72
2021/06/29 13:15:41;;;;;;;;;;;12.90;99.90;;;;;;5053099;28;20411;-72
2021/06/29 13:18:08;;;;;;;;;;;12.90;99.90;;;;;;5053079;28;20367;-69
2021/06/29 13:20:34;;;;;;;;;;;12.90;99.90;;;;;;5053018;28;20390;-70
2021/06/29 13:23:01;;;;;;;;;;;13.00;99.90;;;;;;5052619;28;19915;-68
2021/06/29 13:25:29;;;;;;;;;;;12.90;99.90;;;;;;5053026;28;20374;-70
2021/06/29 13:27:59;;;;;;;;;;;12.90;99.90;;;;;;5052906;28;19917;-69
2021/06/29 13:30:25;;;;;;;;;;;12.90;99.90;;;;;;5052854;28;20020;-69
2021/06/29 13:32:54;;;;;;;;;;;12.90;99.90;;;;;;5052774;28;19920;-69
2021/06/29 13:35:21;;;;;;;;;;;13.00;99.90;;;;;;5052313;28;20180;-68
2021/06/29 13:37:57;;;;;;;;;;;13.00;99.90;;;;;;5051476;28;20453;-68
2021/06/29 13:40:31;;;;;;;;;;;13.00;99.90;;;;;;5052690;28;19913;-68
2021/06/29 13:43:04;;;;;;;;;;;13.00;99.90;;;;;;5052639;28;20004;-68
2021/06/29 13:45:37;;;;;;;;;;;13.00;99.90;;;;;;5052112;28;19999;-69
2021/06/29 13:48:05;;;;;;;;;;;13.00;99.90;;;;;;5052339;28;20406;-68
2021/06/29 13:50:33;;;;;;;;;;;13.00;99.90;;;;;;5052470;28;19912;-69
2021/06/29 13:53:01;;;;;;;;;;;13.00;99.90;;;;;;5052314;28;19919;-68
2021/06/29 13:55:34;;;;;;;;;;;13.10;99.90;;;;;;5052319;28;19932;-71
2021/06/29 13:58:21;;;;;;;;;;;13.10;99.90;;;;;;5052028;28;19915;-67
2021/06/29 14:00:52;;;;;;;;;;;13.10;99.90;;;;;;5052005;28;20000;-67
2021/06/29 14:03:24;;;;;;;;;;;13.10;99.90;;;;;;5051872;28;20019;-69
2021/06/29 14:05:52;;;;;;;;;;;13.10;99.90;;;;;;5051897;28;19913;-68
2021/06/29 14:08:19;;;;;;;;;;;13.00;99.90;;;;;;5052035;28;19916;-68
2021/06/29 14:11:05;;;;;;;;;;;13.00;99.90;;;;;;5052024;28;20015;-68
2021/06/29 14:13:44;;;;;;;;;;;13.00;99.90;;;;;;5051391;28;20105;-68
2021/06/29 14:16:11;;;;;;;;;;;13.00;99.90;;;;;;5051473;28;19909;-67
2021/06/29 14:18:38;;;;;;;;;;;13.00;99.90;;;;;;5051786;28;19908;-68
2021/06/29 14:21:06;;;;;;;;;;;13.00;99.90;;;;;;5051743;28;19923;-71
2021/06/29 14:23:33;;;;;;;;;;;13.10;99.90;;;;;;5051396;28;20019;-68
2021/06/29 14:26:00;;;;;;;;;;;13.00;99.90;;;;;;5051648;28;19928;-68
2021/06/29 14:28:26;;;;;;;;;;;13.10;99.90;;;;;;5050042;28;19913;-68